createdAt,value
2022-09-28T00:03:58.852Z,76.02
2022-09-28T00:10:00.579Z,76.07
2022-09-28T00:16:07.428Z,75.59
2022-09-28T00:22:09.262Z,77.03
2022-09-28T00:28:10.952Z,76.27
2022-09-28T00:34:13.285Z,76.95
2022-09-28T00:40:15.128Z,74.97
2022-09-28T00:46:33.881Z,78.33
2022-09-28T00:53:06.507Z,76.38
2022-09-28T00:59:09.511Z,76.22
2022-09-28T01:05:12.053Z,75.93
2022-09-28T01:11:13.778Z,76.40
2022-09-28T01:17:28.806Z,75.54
2022-09-28T01:23:48.756Z,76.91
2022-09-28T01:30:08.719Z,76.57
2022-09-28T01:36:39.779Z,74.71
2022-09-28T01:42:44.369Z,79.70
2022-09-28T01:49:27.802Z,80.15
2022-09-28T01:55:37.508Z,76.69
2022-09-28T02:01:53.926Z,78.73
2022-09-28T02:08:04.448Z,78.55
2022-09-28T02:14:09.958Z,79.87
2022-09-28T02:20:11.910Z,77.42
2022-09-28T02:26:21.245Z,77.10
2022-09-28T02:32:26.319Z,81.53
2022-09-28T02:38:28.059Z,79.53
2022-09-28T02:44:54.048Z,81.00
2022-09-28T02:51:20.840Z,78.67
2022-09-28T02:57:46.990Z,80.69
2022-09-28T03:04:09.164Z,79.13
2022-09-28T03:10:16.820Z,81.32
2022-09-28T03:16:19.983Z,79.39
2022-09-28T03:22:21.831Z,81.22
2022-09-28T03:28:23.662Z,82.07
2022-09-28T03:34:25.403Z,79.98
2022-09-28T03:40:27.291Z,79.55
2022-09-28T03:46:29.102Z,82.00
2022-09-28T03:52:30.801Z,81.00
2022-09-28T03:58:32.808Z,79.54
2022-09-28T04:04:34.613Z,78.48
2022-09-28T04:10:36.461Z,77.40
2022-09-28T04:16:38.455Z,83.60
2022-09-28T04:22:40.350Z,81.98
2022-09-28T04:29:06.188Z,81.95
2022-09-28T04:35:11.658Z,82.68
2022-09-28T04:41:13.374Z,83.17
2022-09-28T04:47:15.106Z,81.24
2022-09-28T04:53:16.859Z,81.98
2022-09-28T04:59:18.768Z,81.50
2022-09-28T05:05:21.212Z,80.88
2022-09-28T05:11:23.318Z,80.58
2022-09-28T05:17:25.271Z,82.26
2022-09-28T05:23:27.196Z,81.69
2022-09-28T05:29:32.071Z,82.81
2022-09-28T05:35:35.119Z,82.04
2022-09-28T05:41:38.842Z,81.40
2022-09-28T05:47:43.031Z,81.19
2022-09-28T05:53:44.865Z,81.69
2022-09-28T05:59:46.716Z,81.62
2022-09-28T06:12:05.339Z,81.17
2022-09-28T06:18:11.153Z,80.24
2022-09-28T06:24:13.066Z,79.82
2022-09-28T06:30:14.919Z,80.55
2022-09-28T06:36:29.391Z,80.86
2022-09-28T06:42:31.282Z,80.61
2022-09-28T06:48:36.515Z,82.69
2022-09-28T06:54:38.359Z,80.19
2022-09-28T07:00:50.645Z,81.41
2022-09-28T07:19:28.012Z,78.76
2022-09-28T07:25:32.506Z,77.92
2022-09-28T07:31:35.350Z,72.60
2022-09-28T07:44:42.692Z,71.19
2022-09-28T07:50:57.582Z,69.74
2022-09-28T08:16:08.628Z,58.30
2022-09-28T08:29:01.083Z,56.31
2022-09-28T08:35:04.257Z,55.91
2022-09-28T08:47:50.714Z,55.14
2022-09-28T08:54:06.853Z,53.35
2022-09-28T11:08:51.232Z,45.69
2022-09-28T11:15:03.270Z,43.64
2022-09-28T11:27:34.354Z,44.50
2022-09-28T11:33:47.769Z,42.64
2022-09-28T11:40:14.237Z,45.04
2022-09-28T12:19:08.986Z,50.78
2022-09-28T12:25:24.762Z,52.29
2022-09-28T12:51:03.622Z,52.91
2022-09-28T13:10:41.025Z,53.02
2022-09-28T13:17:21.558Z,52.68
2022-09-28T13:29:51.951Z,52.05
2022-09-28T13:36:02.530Z,53.06
2022-09-28T13:42:09.834Z,51.61
2022-09-28T13:48:15.670Z,50.40
2022-09-28T15:05:54.487Z,53.63
2022-09-28T15:12:08.762Z,54.08
2022-09-28T16:35:21.839Z,63.66
2022-09-28T16:47:41.078Z,63.06
2022-09-28T16:54:02.198Z,63.35
2022-09-28T17:00:04.569Z,64.85
2022-09-28T17:06:06.688Z,69.03
2022-09-28T17:12:27.387Z,69.24
2022-09-28T17:18:32.060Z,66.13
2022-09-28T17:24:34.413Z,66.32
2022-09-28T17:30:36.673Z,64.19
2022-09-28T17:36:41.002Z,66.21
2022-09-28T17:42:42.993Z,65.91
2022-09-28T17:48:47.165Z,69.08
2022-09-28T17:54:48.917Z,72.84
2022-09-28T18:00:52.015Z,69.19
2022-09-28T18:06:53.874Z,67.50
2022-09-28T18:13:06.086Z,67.92
2022-09-28T18:19:07.975Z,72.97
2022-09-28T18:25:11.214Z,67.99
2022-09-28T18:31:16.193Z,74.93
2022-09-28T18:37:18.066Z,70.95
2022-09-28T18:43:19.887Z,67.92
2022-09-28T18:49:24.899Z,71.84
2022-09-28T18:55:27.102Z,72.74
2022-09-28T19:01:30.382Z,72.50
2022-09-28T19:07:33.838Z,71.54
2022-09-28T19:13:36.398Z,71.91
2022-09-28T19:19:38.472Z,72.02
2022-09-28T19:25:41.133Z,71.71
2022-09-28T19:31:43.691Z,72.67
2022-09-28T19:37:46.996Z,77.09
2022-09-28T19:43:48.759Z,73.95
2022-09-28T19:49:50.584Z,72.13
2022-09-28T19:55:57.455Z,71.00
2022-09-28T20:02:01.416Z,72.67
2022-09-28T20:14:09.784Z,75.62
2022-09-28T20:20:11.684Z,74.15
2022-09-28T20:26:14.871Z,73.95
2022-09-28T20:32:16.760Z,73.91
2022-09-28T20:38:18.602Z,74.31
2022-09-28T20:44:20.544Z,73.05
2022-09-28T20:50:23.663Z,79.59
2022-09-28T20:56:39.033Z,77.89
2022-09-28T21:02:40.937Z,79.22
2022-09-28T21:08:44.456Z,75.87
2022-09-28T21:14:46.292Z,78.42
2022-09-28T21:20:49.981Z,75.17
2022-09-28T21:26:51.822Z,75.60
2022-09-28T21:32:53.818Z,78.13
2022-09-28T21:38:56.228Z,75.64
2022-09-28T21:44:59.536Z,74.92
2022-09-28T21:51:03.959Z,78.01
2022-09-28T21:57:05.723Z,76.94
2022-09-28T22:03:07.680Z,76.32
2022-09-28T22:09:09.602Z,76.49
2022-09-28T22:15:11.517Z,78.98
2022-09-28T22:21:32.105Z,77.52
2022-09-28T22:27:33.874Z,75.21
2022-09-28T22:33:35.760Z,74.00
2022-09-28T22:39:38.032Z,74.18
2022-09-28T22:45:39.937Z,75.82
2022-09-28T22:51:41.731Z,74.11
2022-09-28T22:57:43.494Z,74.22
2022-09-28T23:03:45.961Z,75.66
2022-09-28T23:09:47.712Z,77.78
2022-09-28T23:15:57.605Z,74.36
2022-09-28T23:21:59.531Z,73.29
2022-09-28T23:28:01.526Z,73.80
2022-09-28T23:34:05.977Z,74.11
2022-09-28T23:40:07.932Z,73.83
2022-09-28T23:46:09.690Z,76.37
2022-09-28T23:52:11.694Z,75.17
2022-09-28T23:58:13.568Z,74.84
